createdAt,value
2022-11-18T07:36:57.311Z,995.33
2022-11-18T07:37:57.279Z,995.31
2022-11-18T07:38:57.263Z,995.34
2022-11-18T07:39:57.260Z,995.34
2022-11-18T07:40:57.234Z,995.33
2022-11-18T07:41:57.234Z,995.34
2022-11-18T07:42:57.233Z,995.39
2022-11-18T07:44:00.484Z,995.43
2022-11-18T07:44:57.183Z,995.41
2022-11-18T07:45:57.176Z,995.47
2022-11-18T07:46:57.164Z,995.37
2022-11-18T07:47:57.168Z,995.37
2022-11-18T07:48:57.148Z,995.38
2022-11-18T07:49:57.135Z,995.38
2022-11-18T07:50:57.118Z,995.40
2022-11-18T07:51:57.116Z,995.39
2022-11-18T07:52:57.140Z,995.41
2022-11-18T07:53:57.089Z,995.38
2022-11-18T07:54:57.070Z,995.40
2022-11-18T07:55:57.062Z,995.38
2022-11-18T07:56:57.058Z,995.41
2022-11-18T07:57:57.062Z,995.45
2022-11-18T07:58:57.032Z,995.46
2022-11-18T07:59:57.016Z,995.43
2022-11-18T08:00:57.035Z,995.46
2022-11-18T08:01:57.028Z,995.44
2022-11-18T08:02:57.002Z,995.47
2022-11-18T08:03:56.965Z,995.50
2022-11-18T08:04:57.014Z,995.51
2022-11-18T08:05:56.953Z,995.52
2022-11-18T08:06:57.026Z,995.55
2022-11-18T08:07:56.939Z,995.51
2022-11-18T08:08:56.946Z,995.55
2022-11-18T08:09:56.904Z,995.56
2022-11-18T08:10:56.886Z,995.56
2022-11-18T08:11:56.875Z,995.55
2022-11-18T08:12:56.888Z,995.56
2022-11-18T08:13:56.856Z,995.60
2022-11-18T08:14:56.840Z,995.55
2022-11-18T08:15:56.834Z,995.54
2022-11-18T08:16:56.821Z,995.58
2022-11-18T08:17:56.829Z,995.61
2022-11-18T08:18:56.809Z,995.60
2022-11-18T08:19:56.782Z,995.62
2022-11-18T08:20:56.783Z,995.64
2022-11-18T08:21:56.790Z,995.69
2022-11-18T08:22:56.772Z,995.72
2022-11-18T08:23:56.747Z,995.73
2022-11-18T08:24:56.744Z,995.73
2022-11-18T08:25:56.721Z,995.73
2022-11-18T08:26:56.706Z,995.75
2022-11-18T08:27:56.735Z,995.77
2022-11-18T08:28:56.792Z,995.78
2022-11-18T08:29:56.671Z,995.79
2022-11-18T08:30:56.668Z,995.81
2022-11-18T08:31:56.672Z,995.82
2022-11-18T08:32:56.668Z,995.85
2022-11-18T08:33:56.633Z,995.88
2022-11-18T08:34:56.621Z,995.85
2022-11-18T08:35:56.608Z,995.83
2022-11-18T08:36:56.591Z,995.81
2022-11-18T08:37:56.584Z,995.82
2022-11-18T08:38:56.592Z,995.86
2022-11-18T08:39:56.557Z,995.88
2022-11-18T08:40:56.671Z,995.89
2022-11-18T08:41:56.525Z,995.86
2022-11-18T08:42:56.521Z,995.86
2022-11-18T08:43:56.552Z,995.85
2022-11-18T08:44:56.507Z,995.94
2022-11-18T08:45:56.485Z,995.94
2022-11-18T08:46:56.493Z,995.92
2022-11-18T08:47:56.470Z,995.95
2022-11-18T08:48:56.480Z,995.96
2022-11-18T08:49:56.441Z,995.97
2022-11-18T08:50:56.437Z,995.97
2022-11-18T08:51:56.421Z,995.98
2022-11-18T08:52:56.411Z,995.97
2022-11-18T08:53:56.418Z,995.97
2022-11-18T08:54:56.386Z,995.98
2022-11-18T08:55:57.349Z,995.98
2022-11-18T08:56:56.459Z,995.95
2022-11-18T08:57:56.345Z,995.94
2022-11-18T08:58:56.375Z,996.01
2022-11-18T08:59:56.332Z,996.00
2022-11-18T09:00:56.342Z,996.00
2022-11-18T09:01:56.389Z,995.99
2022-11-18T09:02:56.309Z,996.02
2022-11-18T09:03:56.309Z,995.98
2022-11-18T09:04:56.266Z,996.01
2022-11-18T09:05:56.255Z,996.01
2022-11-18T09:06:56.328Z,996.03
2022-11-18T09:07:56.244Z,996.00
2022-11-18T09:08:56.243Z,996.01
2022-11-18T09:09:56.209Z,996.03
2022-11-18T09:10:56.227Z,996.09
2022-11-18T09:11:56.194Z,996.12
2022-11-18T09:13:07.059Z,996.11
2022-11-18T09:15:14.162Z,996.06
2022-11-18T09:15:57.142Z,996.08
2022-11-18T09:16:56.147Z,996.08
2022-11-18T09:17:56.123Z,996.05
2022-11-18T09:18:56.148Z,996.05
2022-11-18T09:19:56.111Z,996.13
2022-11-18T09:20:56.088Z,996.15
2022-11-18T09:21:56.078Z,996.11
2022-11-18T09:22:56.068Z,996.11
2022-11-18T09:23:56.072Z,996.12
2022-11-18T09:24:56.051Z,996.13
2022-11-18T09:25:56.053Z,996.14
2022-11-18T09:26:56.026Z,996.21
2022-11-18T09:27:56.033Z,996.22
2022-11-18T09:28:56.083Z,996.20
2022-11-18T09:29:55.995Z,996.21
2022-11-18T09:30:55.984Z,996.27
2022-11-18T09:31:55.968Z,996.26
2022-11-18T09:32:55.950Z,996.29
2022-11-18T09:33:55.956Z,996.35
2022-11-18T09:34:55.951Z,996.33
2022-11-18T09:35:55.923Z,996.31
2022-11-18T09:36:56.059Z,996.39
2022-11-18T09:37:55.894Z,996.39
2022-11-18T09:38:55.899Z,996.36
2022-11-18T09:39:55.872Z,996.43
2022-11-18T09:40:55.858Z,996.42
2022-11-18T09:41:55.854Z,996.47
2022-11-18T09:42:55.839Z,996.46
2022-11-18T09:43:55.846Z,996.48
2022-11-18T09:44:55.970Z,996.52
2022-11-18T09:45:55.812Z,996.55
2022-11-18T09:46:55.791Z,996.53
2022-11-18T09:47:55.781Z,996.53
2022-11-18T09:48:55.792Z,996.57
2022-11-18T09:49:55.768Z,996.55
2022-11-18T09:50:55.760Z,996.57
2022-11-18T09:51:55.740Z,996.56
2022-11-18T09:52:55.740Z,996.58
2022-11-18T09:53:55.792Z,996.58
2022-11-18T09:54:55.712Z,996.56
2022-11-18T09:55:55.689Z,996.59
2022-11-18T09:56:55.795Z,996.62
2022-11-18T09:57:55.665Z,996.59
2022-11-18T09:58:55.679Z,996.61
2022-11-18T09:59:55.640Z,996.59
2022-11-18T10:00:55.767Z,996.61
2022-11-18T10:01:55.697Z,996.67
2022-11-18T10:02:55.613Z,996.65
2022-11-18T10:03:55.607Z,996.67
2022-11-18T10:04:55.583Z,996.68
2022-11-18T10:05:55.584Z,996.68
2022-11-18T10:06:55.593Z,996.70
2022-11-18T10:07:55.565Z,996.70
2022-11-18T10:08:55.573Z,996.72
2022-11-18T10:09:55.544Z,996.71
2022-11-18T10:10:55.532Z,996.75
2022-11-18T10:11:55.522Z,996.71
2022-11-18T10:12:55.493Z,996.73
2022-11-18T10:13:55.506Z,996.75
2022-11-18T10:14:55.501Z,996.75
2022-11-18T10:15:55.466Z,996.73
2022-11-18T10:16:58.134Z,996.74
2022-11-18T10:17:55.439Z,996.73
2022-11-18T10:19:02.575Z,996.75
2022-11-18T10:19:56.431Z,996.72
2022-11-18T10:20:55.405Z,996.74
2022-11-18T10:21:55.395Z,996.80
2022-11-18T10:22:55.389Z,996.77
2022-11-18T10:23:55.396Z,996.78
2022-11-18T10:24:55.356Z,996.78
2022-11-18T10:25:55.355Z,996.70
2022-11-18T10:26:55.339Z,996.77
2022-11-18T10:27:55.351Z,996.81
2022-11-18T10:28:55.330Z,996.82
2022-11-18T10:29:55.312Z,996.84
2022-11-18T10:30:55.314Z,996.81
2022-11-18T10:31:59.523Z,996.84
2022-11-18T10:32:56.360Z,996.88
2022-11-18T10:33:55.283Z,996.90
2022-11-18T10:34:55.251Z,996.89
2022-11-18T10:35:55.263Z,996.89
2022-11-18T10:36:55.225Z,996.93
2022-11-18T10:38:07.522Z,996.95
2022-11-18T10:38:56.213Z,996.94
2022-11-18T10:39:55.202Z,996.95
2022-11-18T10:40:55.178Z,996.97
2022-11-18T10:41:55.179Z,996.97
2022-11-18T10:42:55.173Z,996.97
2022-11-18T10:43:55.176Z,996.99
2022-11-18T10:44:55.133Z,997.01
2022-11-18T10:45:55.139Z,997.04
2022-11-18T10:46:55.119Z,996.95
2022-11-18T10:47:55.104Z,997.01
2022-11-18T10:48:55.122Z,997.05
2022-11-18T10:49:55.086Z,997.07
2022-11-18T10:50:56.178Z,997.06
2022-11-18T10:51:55.068Z,997.02
2022-11-18T10:52:55.045Z,997.00
2022-11-18T10:53:55.044Z,997.01
2022-11-18T10:54:55.023Z,997.06
2022-11-18T10:55:55.022Z,997.02
2022-11-18T10:57:55.987Z,997.07
2022-11-18T10:58:54.995Z,996.99
2022-11-18T10:59:54.975Z,996.99
2022-11-18T11:00:54.960Z,997.04
2022-11-18T11:01:48.029Z,997.04
2022-11-18T11:01:54.995Z,996.98
2022-11-18T11:02:54.932Z,997.00
2022-11-18T11:03:54.945Z,997.01
2022-11-18T11:04:54.929Z,997.04
2022-11-18T11:05:54.908Z,996.98
2022-11-18T11:06:54.944Z,997.03
2022-11-18T11:08:14.334Z,997.05
2022-11-18T11:08:55.881Z,997.02
2022-11-18T11:09:54.848Z,996.96
2022-11-18T11:10:54.851Z,997.00
2022-11-18T11:11:54.831Z,997.00
2022-11-18T11:12:54.837Z,997.02
2022-11-18T11:13:54.834Z,997.03
2022-11-18T11:14:54.821Z,997.10
2022-11-18T11:15:54.781Z,997.08
2022-11-18T11:16:54.779Z,997.07
2022-11-18T11:17:54.828Z,997.07
2022-11-18T11:18:54.771Z,997.09
2022-11-18T11:19:54.793Z,997.08
2022-11-18T11:20:54.855Z,997.07
2022-11-18T11:21:54.730Z,997.09
2022-11-18T11:22:54.699Z,997.06
2022-11-18T11:23:54.718Z,997.05
2022-11-18T11:24:54.680Z,997.07
2022-11-18T11:28:55.661Z,997.09
2022-11-18T11:29:54.709Z,997.14
2022-11-18T11:30:54.745Z,997.09
2022-11-18T11:31:54.597Z,997.10
2022-11-18T11:32:55.470Z,997.08
2022-11-18T11:33:54.592Z,997.10
2022-11-18T11:34:54.583Z,997.08
2022-11-18T11:35:54.551Z,997.10
2022-11-18T11:36:54.660Z,997.07
2022-11-18T11:37:54.550Z,997.10
2022-11-18T11:38:55.752Z,997.07
2022-11-18T11:39:54.589Z,997.08
2022-11-18T11:40:54.521Z,997.09
2022-11-18T11:41:54.502Z,997.08
2022-11-18T11:42:54.466Z,997.12
2022-11-18T11:43:54.460Z,997.09
2022-11-18T11:44:54.480Z,997.11
2022-11-18T11:45:54.451Z,997.09
2022-11-18T11:46:54.421Z,997.13
2022-11-18T11:47:54.423Z,997.11
2022-11-18T11:48:54.404Z,997.14
2022-11-18T11:49:54.471Z,997.12
2022-11-18T11:51:03.045Z,997.13
2022-11-18T11:51:55.382Z,997.15
2022-11-18T11:52:54.395Z,997.16
2022-11-18T11:53:54.362Z,997.15
2022-11-18T11:54:54.343Z,997.13
2022-11-18T11:55:54.367Z,997.16
2022-11-18T11:56:54.313Z,997.17
2022-11-18T11:57:54.326Z,997.16
2022-11-18T11:58:54.300Z,997.18
2022-11-18T11:59:54.364Z,997.18
2022-11-18T12:00:54.293Z,997.17
2022-11-18T12:01:54.268Z,997.16
2022-11-18T12:02:54.365Z,997.15
2022-11-18T12:03:54.232Z,997.17
2022-11-18T12:04:54.247Z,997.15
2022-11-18T12:05:54.227Z,997.17
2022-11-18T12:06:54.276Z,997.15
2022-11-18T12:07:54.212Z,997.16
2022-11-18T12:08:54.189Z,997.16
2022-11-18T12:09:54.214Z,997.15
2022-11-18T12:10:54.177Z,997.15
2022-11-18T12:11:54.153Z,997.17
2022-11-18T12:12:54.154Z,997.15
2022-11-18T12:13:54.121Z,997.17
2022-11-18T12:14:54.101Z,997.12
2022-11-18T12:15:54.125Z,997.12
2022-11-18T12:16:54.121Z,997.17
2022-11-18T12:17:54.088Z,997.16
2022-11-18T12:18:54.083Z,997.18
2022-11-18T12:19:54.066Z,997.11
2022-11-18T12:20:54.038Z,997.13
2022-11-18T12:21:54.041Z,997.15
2022-11-18T12:22:54.013Z,997.08
2022-11-18T12:23:54.005Z,997.15
2022-11-18T12:24:54.032Z,997.17
2022-11-18T12:25:54.004Z,997.12
2022-11-18T12:26:53.984Z,997.16
2022-11-18T12:27:58.707Z,997.15
2022-11-18T12:28:53.964Z,997.17
2022-11-18T12:29:54.024Z,997.18
2022-11-18T12:30:53.941Z,997.19
2022-11-18T12:31:53.936Z,997.18
2022-11-18T12:32:53.919Z,997.19
2022-11-18T12:33:53.903Z,997.17
2022-11-18T12:34:53.928Z,997.19
2022-11-18T12:35:53.887Z,997.20
2022-11-18T12:36:53.878Z,997.23
2022-11-18T12:37:53.857Z,997.21
2022-11-18T12:38:53.826Z,997.21
2022-11-18T12:39:53.970Z,997.19
2022-11-18T12:40:53.827Z,997.19
2022-11-18T12:41:53.812Z,997.18
2022-11-18T12:42:53.793Z,997.17
2022-11-18T12:43:53.773Z,997.19
2022-11-18T12:44:53.762Z,997.20
2022-11-18T12:45:53.761Z,997.20
2022-11-18T12:46:53.736Z,997.22
2022-11-18T12:47:53.756Z,997.23
2022-11-18T12:48:53.725Z,997.28
2022-11-18T12:49:53.779Z,997.28
2022-11-18T12:50:53.698Z,997.29
2022-11-18T12:51:53.694Z,997.32
2022-11-18T12:52:53.711Z,997.32
2022-11-18T12:53:53.671Z,997.31
2022-11-18T12:54:53.657Z,997.31
2022-11-18T12:55:53.652Z,997.33
2022-11-18T12:56:53.651Z,997.30
2022-11-18T12:57:53.633Z,997.32
2022-11-18T12:58:53.618Z,997.32
2022-11-18T12:59:53.615Z,997.35
2022-11-18T13:00:53.609Z,997.34
2022-11-18T13:01:53.577Z,997.33
2022-11-18T13:02:53.593Z,997.30
2022-11-18T13:03:53.569Z,997.28
2022-11-18T13:04:53.552Z,997.28
2022-11-18T13:05:53.555Z,997.34
2022-11-18T13:06:53.541Z,997.38
2022-11-18T13:07:53.514Z,997.35
2022-11-18T13:08:53.537Z,997.35
2022-11-18T13:09:53.485Z,997.36
2022-11-18T13:10:56.026Z,997.36
2022-11-18T13:11:53.586Z,997.36
2022-11-18T13:12:53.469Z,997.38
2022-11-18T13:13:53.472Z,997.39
2022-11-18T13:14:53.424Z,997.37
2022-11-18T13:15:53.430Z,997.38
2022-11-18T13:16:53.420Z,997.40
2022-11-18T13:17:53.394Z,997.41
2022-11-18T13:18:53.399Z,997.39
2022-11-18T13:19:53.392Z,997.41
2022-11-18T13:20:53.375Z,997.44
2022-11-18T13:21:53.355Z,997.44
2022-11-18T13:22:53.373Z,997.43
2022-11-18T13:23:59.339Z,997.42
2022-11-18T13:24:54.322Z,997.45
2022-11-18T13:25:53.322Z,997.43
2022-11-18T13:26:53.301Z,997.43
2022-11-18T13:27:53.293Z,997.45
2022-11-18T13:28:53.283Z,997.49
2022-11-18T13:29:54.252Z,997.47
2022-11-18T13:30:53.255Z,997.47
2022-11-18T13:31:53.249Z,997.50
2022-11-18T13:32:53.230Z,997.49
2022-11-18T13:33:53.227Z,997.50
2022-11-18T13:34:53.233Z,997.51
2022-11-18T13:35:53.199Z,997.51
2022-11-18T13:36:53.188Z,997.47
2022-11-18T13:37:53.167Z,997.51
2022-11-18T13:38:53.167Z,997.50
2022-11-18T13:39:53.174Z,997.53
2022-11-18T13:40:53.149Z,997.53
2022-11-18T13:41:53.138Z,997.56
2022-11-18T13:42:53.109Z,997.56
2022-11-18T13:43:54.245Z,997.58
2022-11-18T13:44:53.125Z,997.63
2022-11-18T13:45:53.092Z,997.64
2022-11-18T13:46:53.087Z,997.67
2022-11-18T13:47:53.062Z,997.64
2022-11-18T13:48:53.064Z,997.61
2022-11-18T13:49:53.057Z,997.56
2022-11-18T13:50:53.054Z,997.61
2022-11-18T13:51:53.021Z,997.61
2022-11-18T13:52:52.992Z,997.60
2022-11-18T13:53:53.003Z,997.55
2022-11-18T13:54:52.990Z,997.51
2022-11-18T13:55:52.980Z,997.50
2022-11-18T13:56:52.952Z,997.48
2022-11-18T13:57:52.954Z,997.51
2022-11-18T13:59:16.266Z,997.55
2022-11-18T13:59:53.954Z,997.57
2022-11-18T14:00:52.953Z,997.58
2022-11-18T14:01:52.917Z,997.59
2022-11-18T14:02:52.882Z,997.66
2022-11-18T14:03:52.889Z,997.66
2022-11-18T14:04:52.982Z,997.63
2022-11-18T14:05:52.880Z,997.71
2022-11-18T14:06:52.953Z,997.72
2022-11-18T14:07:52.860Z,997.73
2022-11-18T14:08:52.812Z,997.75
2022-11-18T14:09:52.818Z,997.76
2022-11-18T14:10:52.804Z,997.78
2022-11-18T14:11:52.792Z,997.74
2022-11-18T14:12:52.779Z,997.81
2022-11-18T14:13:52.771Z,997.80
2022-11-18T14:14:52.748Z,997.75
2022-11-18T14:15:52.782Z,997.73
2022-11-18T14:16:52.739Z,997.78
2022-11-18T14:17:52.751Z,997.78
2022-11-18T14:18:52.752Z,997.79
2022-11-18T14:19:52.687Z,997.75
2022-11-18T14:20:52.690Z,997.84
2022-11-18T14:21:52.678Z,997.84
2022-11-18T14:22:52.667Z,997.82
2022-11-18T14:23:52.643Z,997.83
2022-11-18T14:24:52.709Z,997.85
2022-11-18T14:25:52.647Z,997.87
2022-11-18T14:26:52.612Z,997.86
2022-11-18T14:27:52.592Z,997.90
2022-11-18T14:28:52.601Z,997.88
2022-11-18T14:29:52.573Z,997.92
2022-11-18T14:30:52.594Z,997.94
2022-11-18T14:31:52.548Z,997.95
2022-11-18T14:32:52.583Z,997.93
2022-11-18T14:33:52.541Z,997.91
2022-11-18T14:34:52.537Z,997.94
2022-11-18T14:35:52.543Z,997.89
2022-11-18T14:36:52.517Z,997.94
2022-11-18T14:38:00.113Z,997.92
2022-11-18T14:39:53.481Z,997.97
2022-11-18T14:40:52.491Z,997.94
2022-11-18T14:41:52.449Z,997.95
2022-11-18T14:42:52.444Z,997.95
2022-11-18T14:43:52.436Z,997.94
2022-11-18T14:44:52.419Z,997.98
2022-11-18T14:45:52.406Z,997.95
2022-11-18T14:46:52.429Z,997.98
2022-11-18T14:47:52.384Z,997.99
2022-11-18T14:48:52.438Z,997.95
2022-11-18T14:49:52.343Z,997.98
2022-11-18T14:50:52.334Z,998.00
2022-11-18T14:51:52.336Z,997.98
2022-11-18T14:52:52.316Z,998.02
2022-11-18T14:53:52.316Z,998.00
2022-11-18T14:54:52.307Z,997.99
2022-11-18T14:55:52.280Z,997.99
2022-11-18T14:56:52.314Z,998.01
2022-11-18T14:57:52.270Z,998.00
2022-11-18T14:58:52.265Z,997.99
2022-11-18T14:59:52.246Z,997.98
2022-11-18T15:00:52.319Z,998.01
2022-11-18T15:01:52.401Z,998.01
2022-11-18T15:02:52.281Z,998.04
2022-11-18T15:03:52.202Z,998.08
2022-11-18T15:04:52.295Z,998.12
2022-11-18T15:05:52.165Z,998.12
2022-11-18T15:06:52.198Z,998.12
2022-11-18T15:07:52.221Z,998.12
2022-11-18T15:08:52.138Z,998.09
2022-11-18T15:09:52.138Z,998.14
2022-11-18T15:10:52.115Z,998.13
2022-11-18T15:11:52.110Z,998.13
2022-11-18T15:12:52.114Z,998.16
2022-11-18T15:13:52.070Z,998.14
2022-11-18T15:14:52.082Z,998.12
2022-11-18T15:15:52.076Z,998.16
2022-11-18T15:16:52.065Z,998.16
2022-11-18T15:17:54.112Z,998.14
2022-11-18T15:18:52.042Z,998.18
2022-11-18T15:19:52.003Z,998.16
2022-11-18T15:20:52.032Z,998.17
2022-11-18T15:21:51.993Z,998.14
2022-11-18T15:22:51.993Z,998.15
2022-11-18T15:23:52.005Z,998.13
2022-11-18T15:24:51.972Z,998.15
2022-11-18T15:25:51.944Z,998.18
2022-11-18T15:26:51.956Z,998.15
2022-11-18T15:27:51.917Z,998.15
2022-11-18T15:28:51.948Z,998.18
2022-11-18T15:29:51.898Z,998.18
2022-11-18T15:30:51.884Z,998.16
2022-11-18T15:31:51.869Z,998.18
2022-11-18T15:32:51.875Z,998.21
2022-11-18T15:33:51.860Z,998.22
2022-11-18T15:34:51.857Z,998.22
2022-11-18T15:35:51.839Z,998.28
2022-11-18T15:36:51.878Z,998.25
2022-11-18T15:37:51.803Z,998.24
2022-11-18T15:38:51.835Z,998.27
2022-11-18T15:39:51.825Z,998.31
2022-11-18T15:40:51.768Z,998.35
2022-11-18T15:41:51.770Z,998.27
2022-11-18T15:42:52.515Z,998.31
2022-11-18T15:43:51.734Z,998.27
2022-11-18T15:44:51.762Z,998.33
2022-11-18T15:45:51.735Z,998.34
2022-11-18T15:46:51.720Z,998.34
2022-11-18T15:47:51.692Z,998.37
2022-11-18T15:48:51.715Z,998.39
2022-11-18T15:49:51.812Z,998.38
2022-11-18T15:50:54.227Z,998.39
2022-11-18T15:51:51.820Z,998.39
2022-11-18T15:52:51.766Z,998.39
2022-11-18T15:53:51.631Z,998.38
2022-11-18T15:54:51.620Z,998.36
2022-11-18T15:55:51.651Z,998.38
2022-11-18T15:56:51.600Z,998.37
2022-11-18T15:57:51.593Z,998.39
2022-11-18T15:58:51.580Z,998.41
2022-11-18T15:59:51.553Z,998.43
2022-11-18T16:00:51.607Z,998.39
2022-11-18T16:01:54.321Z,998.40
2022-11-18T16:02:51.521Z,998.44
2022-11-18T16:03:51.517Z,998.44
2022-11-18T16:04:51.511Z,998.42
2022-11-18T16:05:51.496Z,998.45
2022-11-18T16:06:51.501Z,998.44
2022-11-18T16:07:55.014Z,998.49
2022-11-18T16:08:57.496Z,998.48
2022-11-18T16:09:52.452Z,998.49
2022-11-18T16:10:51.444Z,998.47
2022-11-18T16:11:51.455Z,998.50
2022-11-18T16:12:51.419Z,998.48
2022-11-18T16:13:51.395Z,998.48
2022-11-18T16:14:51.379Z,998.48
2022-11-18T16:15:51.389Z,998.48
2022-11-18T16:16:51.401Z,998.51
2022-11-18T16:17:51.386Z,998.52
2022-11-18T16:18:51.348Z,998.51
2022-11-18T16:19:51.331Z,998.51
2022-11-18T16:20:51.318Z,998.51
2022-11-18T16:21:51.307Z,998.50
2022-11-18T16:22:51.312Z,998.52
2022-11-18T16:23:51.296Z,998.48
2022-11-18T16:24:53.325Z,998.47
2022-11-18T16:25:51.259Z,998.49
2022-11-18T16:26:51.273Z,998.50
2022-11-18T16:27:51.252Z,998.51
2022-11-18T16:28:51.226Z,998.54
2022-11-18T16:29:51.204Z,998.54
2022-11-18T16:30:51.213Z,998.53
2022-11-18T16:31:51.210Z,998.52
2022-11-18T16:32:51.201Z,998.54
2022-11-18T16:33:51.183Z,998.52
2022-11-18T16:34:54.175Z,998.52
2022-11-18T16:35:52.156Z,998.55
2022-11-18T16:36:51.128Z,998.58
2022-11-18T16:37:51.150Z,998.52
2022-11-18T16:38:51.130Z,998.58
2022-11-18T16:39:51.095Z,998.55
2022-11-18T16:40:51.153Z,998.54
2022-11-18T16:41:51.080Z,998.59
2022-11-18T16:42:51.065Z,998.56
2022-11-18T16:43:51.059Z,998.57
2022-11-18T16:44:51.055Z,998.58
2022-11-18T16:45:51.040Z,998.56
2022-11-18T16:46:51.029Z,998.56
2022-11-18T16:47:51.018Z,998.59
2022-11-18T16:48:51.021Z,998.59
2022-11-18T16:49:50.994Z,998.61
2022-11-18T16:50:50.988Z,998.63
2022-11-18T16:51:50.956Z,998.61
2022-11-18T16:52:50.960Z,998.63
2022-11-18T16:53:50.954Z,998.65
2022-11-18T16:54:50.928Z,998.64
2022-11-18T16:55:50.917Z,998.63
2022-11-18T16:56:51.016Z,998.65
2022-11-18T16:57:50.954Z,998.64
2022-11-18T16:58:50.963Z,998.66
2022-11-18T16:59:50.884Z,998.67
2022-11-18T17:01:17.669Z,998.71
2022-11-18T17:01:51.946Z,998.72
2022-11-18T17:02:50.851Z,998.71
2022-11-18T17:03:50.839Z,998.76
2022-11-18T17:04:50.836Z,998.78
2022-11-18T17:05:50.800Z,998.77
2022-11-18T17:06:50.815Z,998.80
2022-11-18T17:07:50.846Z,998.78
2022-11-18T17:08:50.778Z,998.83
2022-11-18T17:09:50.767Z,998.82
2022-11-18T17:10:50.772Z,998.80
2022-11-18T17:11:50.727Z,998.81
2022-11-18T17:12:50.746Z,998.82
2022-11-18T17:13:54.786Z,998.81
2022-11-18T17:14:51.733Z,998.84
2022-11-18T17:15:50.703Z,998.84
2022-11-18T17:16:50.695Z,998.83
2022-11-18T17:17:50.661Z,998.87
2022-11-18T17:18:50.675Z,998.85
2022-11-18T17:19:50.669Z,998.86
2022-11-18T17:20:50.635Z,998.87
2022-11-18T17:21:50.614Z,998.85
2022-11-18T17:22:50.626Z,998.83
2022-11-18T17:23:50.599Z,998.87
2022-11-18T17:24:50.622Z,998.86
2022-11-18T17:25:50.582Z,998.85
2022-11-18T17:26:50.579Z,998.88
2022-11-18T17:27:50.573Z,998.90
2022-11-18T17:28:50.559Z,998.91
2022-11-18T17:29:50.554Z,998.92
2022-11-18T17:30:50.523Z,998.93
2022-11-18T17:31:50.519Z,998.96
2022-11-18T17:32:50.509Z,998.94
2022-11-18T17:33:50.482Z,998.95
2022-11-18T17:34:50.495Z,998.96
2022-11-18T17:35:50.450Z,998.93
2022-11-18T17:36:50.502Z,998.92
2022-11-18T17:37:50.443Z,998.96
2022-11-18T17:38:50.453Z,998.93
2022-11-18T17:39:50.455Z,998.96
2022-11-18T17:40:50.419Z,998.96
2022-11-18T17:41:50.403Z,998.99
2022-11-18T17:42:50.397Z,999.03
2022-11-18T17:43:50.364Z,999.02
2022-11-18T17:44:50.404Z,999.01
2022-11-18T17:45:50.351Z,999.01
2022-11-18T17:46:50.362Z,999.04
2022-11-18T17:47:50.323Z,999.03
2022-11-18T17:48:50.321Z,999.07
2022-11-18T17:49:50.319Z,999.05
2022-11-18T17:50:50.291Z,999.08
2022-11-18T17:51:50.289Z,999.09
2022-11-18T17:52:50.268Z,999.06
2022-11-18T17:53:50.269Z,999.07
2022-11-18T17:54:50.261Z,999.11
2022-11-18T17:55:50.232Z,999.09
2022-11-18T17:56:50.237Z,999.11
2022-11-18T17:57:50.219Z,999.10
2022-11-18T17:58:50.213Z,999.10
2022-11-18T17:59:50.212Z,999.11
2022-11-18T18:00:50.285Z,999.11
2022-11-18T18:01:54.392Z,999.11
2022-11-18T18:02:51.165Z,999.09
2022-11-18T18:03:50.135Z,999.16
2022-11-18T18:04:50.147Z,999.15
2022-11-18T18:05:50.126Z,999.18
2022-11-18T18:06:50.135Z,999.18
2022-11-18T18:07:50.149Z,999.20
2022-11-18T18:08:50.108Z,999.20
2022-11-18T18:09:50.123Z,999.23
2022-11-18T18:10:50.073Z,999.22
2022-11-18T18:11:50.058Z,999.22
2022-11-18T18:12:50.054Z,999.25
2022-11-18T18:13:50.040Z,999.24
2022-11-18T18:14:50.068Z,999.28
2022-11-18T18:15:50.014Z,999.30
2022-11-18T18:16:50.050Z,999.32
2022-11-18T18:17:49.977Z,999.30
2022-11-18T18:18:49.985Z,999.29
2022-11-18T18:19:49.980Z,999.33
2022-11-18T18:20:49.968Z,999.35
2022-11-18T18:21:49.948Z,999.33
2022-11-18T18:22:49.934Z,999.34
2022-11-18T18:23:49.912Z,999.38
2022-11-18T18:24:49.916Z,999.35
2022-11-18T18:25:49.893Z,999.42
2022-11-18T18:26:49.883Z,999.40
2022-11-18T18:27:49.898Z,999.39
2022-11-18T18:28:49.872Z,999.37
2022-11-18T18:29:49.853Z,999.40
2022-11-18T18:30:49.837Z,999.41
2022-11-18T18:31:49.841Z,999.41
2022-11-18T18:32:52.561Z,999.43
2022-11-18T18:33:49.794Z,999.42
2022-11-18T18:34:49.815Z,999.42
2022-11-18T18:35:49.865Z,999.46
2022-11-18T18:36:49.763Z,999.46
2022-11-18T18:37:49.765Z,999.46
2022-11-18T18:38:49.736Z,999.48
2022-11-18T18:39:49.756Z,999.48
2022-11-18T18:40:49.720Z,999.50
2022-11-18T18:41:49.722Z,999.50
2022-11-18T18:42:49.695Z,999.48
2022-11-18T18:43:49.703Z,999.55
2022-11-18T18:44:49.715Z,999.54
2022-11-18T18:45:49.674Z,999.57
2022-11-18T18:46:49.673Z,999.57
2022-11-18T18:47:49.651Z,999.58
2022-11-18T18:48:49.658Z,999.55
2022-11-18T18:49:49.650Z,999.58
2022-11-18T18:50:49.623Z,999.61
2022-11-18T18:51:49.608Z,999.59
2022-11-18T18:52:49.578Z,999.62
2022-11-18T18:53:49.584Z,999.64
2022-11-18T18:54:49.607Z,999.63
2022-11-18T18:55:49.546Z,999.69
2022-11-18T18:56:49.535Z,999.68
2022-11-18T18:57:49.532Z,999.67
2022-11-18T18:58:49.575Z,999.68
2022-11-18T18:59:49.517Z,999.65
2022-11-18T19:00:52.117Z,999.63
2022-11-18T19:01:49.585Z,999.64
2022-11-18T19:02:49.481Z,999.61
2022-11-18T19:03:49.473Z,999.63
2022-11-18T19:04:49.495Z,999.65
2022-11-18T19:06:21.851Z,999.64
2022-11-18T19:06:59.935Z,999.66
2022-11-18T19:07:50.511Z,999.67
2022-11-18T19:08:49.396Z,999.63
2022-11-18T19:09:49.408Z,999.64
2022-11-18T19:10:49.391Z,999.64
2022-11-18T19:11:49.514Z,999.63
2022-11-18T19:12:49.370Z,999.60
2022-11-18T19:13:49.382Z,999.63
2022-11-18T19:14:49.346Z,999.65
2022-11-18T19:15:49.435Z,999.61
2022-11-18T19:16:49.307Z,999.62
2022-11-18T19:17:49.360Z,999.64
2022-11-18T19:18:49.298Z,999.63
2022-11-18T19:19:49.307Z,999.60
2022-11-18T19:20:49.281Z,999.64
2022-11-18T19:21:49.256Z,999.62
2022-11-18T19:22:49.251Z,999.65
2022-11-18T19:23:49.232Z,999.66
2022-11-18T19:24:50.706Z,999.65
2022-11-18T19:25:49.209Z,999.69
2022-11-18T19:26:49.197Z,999.68
2022-11-18T19:27:49.197Z,999.69
2022-11-18T19:28:49.168Z,999.70
2022-11-18T19:29:49.198Z,999.70
2022-11-18T19:30:49.154Z,999.71
2022-11-18T19:31:49.156Z,999.71
2022-11-18T19:32:49.137Z,999.74
2022-11-18T19:33:49.113Z,999.74
2022-11-18T19:34:49.130Z,999.77
2022-11-18T19:35:49.090Z,999.77
2022-11-18T19:36:49.175Z,999.77
2022-11-18T19:37:49.072Z,999.81
2022-11-18T19:38:49.072Z,999.80
2022-11-18T19:39:49.107Z,999.81
2022-11-18T19:40:49.035Z,999.82
2022-11-18T19:41:49.042Z,999.82
2022-11-18T19:42:49.022Z,999.86
2022-11-18T19:43:49.002Z,999.84
2022-11-18T19:44:49.005Z,999.84
2022-11-18T19:45:48.996Z,999.85
2022-11-18T19:46:48.977Z,999.86
2022-11-18T19:47:48.968Z,999.88
2022-11-18T19:48:48.953Z,999.90
2022-11-18T19:49:48.954Z,999.88
2022-11-18T19:50:48.916Z,999.94
2022-11-18T19:51:48.922Z,999.92
2022-11-18T19:52:48.935Z,999.96
2022-11-18T19:53:48.911Z,999.95
2022-11-18T19:54:48.882Z,999.94
2022-11-18T19:55:48.884Z,999.97
2022-11-18T19:56:48.865Z,999.98
2022-11-18T19:57:48.848Z,999.99
2022-11-18T19:58:48.841Z,999.99
2022-11-18T19:59:48.851Z,1000.02
2022-11-18T20:00:48.817Z,1000.02
2022-11-18T20:01:48.882Z,1000.01
2022-11-18T20:02:48.810Z,1000.03
2022-11-18T20:03:48.790Z,1000.06
2022-11-18T20:04:48.781Z,1000.05
2022-11-18T20:05:48.750Z,1000.06
2022-11-18T20:06:48.737Z,1000.09
2022-11-18T20:07:48.738Z,1000.09
2022-11-18T20:08:48.757Z,1000.09
2022-11-18T20:09:48.705Z,1000.05